sensor_id;sensor_type;location;lat;lon;timestamp;temperature;humidity
23991;DHT22;12205;50.600;4.608;2023-12-20T00:02:20;6.90;99.90
23991;DHT22;12205;50.600;4.608;2023-12-20T00:04:47;6.80;99.90
23991;DHT22;12205;50.600;4.608;2023-12-20T00:07:14;6.80;99.90
23991;DHT22;12205;50.600;4.608;2023-12-20T00:09:42;6.80;99.90
23991;DHT22;12205;50.600;4.608;2023-12-20T00:12:09;6.80;99.90
23991;DHT22;12205;50.600;4.608;2023-12-20T00:14:37;6.70;99.90
23991;DHT22;12205;50.600;4.608;2023-12-20T00:17:04;6.70;99.90
23991;DHT22;12205;50.600;4.608;2023-12-20T00:19:32;6.60;99.90
23991;DHT22;12205;50.600;4.608;2023-12-20T00:22:00;6.50;99.90
23991;DHT22;12205;50.600;4.608;2023-12-20T00:24:27;6.50;99.90
23991;DHT22;12205;50.600;4.608;2023-12-20T00:26:54;6.40;99.90
23991;DHT22;12205;50.600;4.608;2023-12-20T00:29:21;6.40;99.90
23991;DHT22;12205;50.600;4.608;2023-12-20T00:31:48;6.40;99.90
23991;DHT22;12205;50.600;4.608;2023-12-20T00:34:15;6.40;99.90
23991;DHT22;12205;50.600;4.608;2023-12-20T00:36:45;6.40;99.90
23991;DHT22;12205;50.600;4.608;2023-12-20T00:39:13;6.40;99.90
23991;DHT22;12205;50.600;4.608;2023-12-20T00:41:40;6.30;99.90
23991;DHT22;12205;50.600;4.608;2023-12-20T00:44:07;6.40;99.90
23991;DHT22;12205;50.600;4.608;2023-12-20T00:46:34;6.40;99.90
23991;DHT22;12205;50.600;4.608;2023-12-20T00:49:01;6.40;99.90
23991;DHT22;12205;50.600;4.608;2023-12-20T00:51:28;6.50;99.90
23991;DHT22;12205;50.600;4.608;2023-12-20T00:53:57;6.40;99.90
23991;DHT22;12205;50.600;4.608;2023-12-20T00:56:24;6.50;99.90
23991;DHT22;12205;50.600;4.608;2023-12-20T00:58:51;6.40;99.90
23991;DHT22;12205;50.600;4.608;2023-12-20T01:01:18;6.40;99.90
23991;DHT22;12205;50.600;4.608;2023-12-20T01:03:45;6.40;99.90
23991;DHT22;12205;50.600;4.608;2023-12-20T01:06:12;6.30;99.90
23991;DHT22;12205;50.600;4.608;2023-12-20T01:08:39;6.20;99.90
23991;DHT22;12205;50.600;4.608;2023-12-20T01:11:08;6.20;99.90
23991;DHT22;12205;50.600;4.608;2023-12-20T01:13:35;6.10;99.90
23991;DHT22;12205;50.600;4.608;2023-12-20T01:16:03;6.10;99.90
23991;DHT22;12205;50.600;4.608;2023-12-20T01:18:31;6.10;99.90
23991;DHT22;12205;50.600;4.608;2023-12-20T01:21:01;6.10;99.90
23991;DHT22;12205;50.600;4.608;2023-12-20T01:23:29;6.00;99.90
23991;DHT22;12205;50.600;4.608;2023-12-20T01:25:56;6.00;99.90
23991;DHT22;12205;50.600;4.608;2023-12-20T01:28:26;6.00;99.90
23991;DHT22;12205;50.600;4.608;2023-12-20T01:30:54;5.90;99.90
23991;DHT22;12205;50.600;4.608;2023-12-20T01:33:21;5.90;99.90
23991;DHT22;12205;50.600;4.608;2023-12-20T01:35:48;5.90;99.90
23991;DHT22;12205;50.600;4.608;2023-12-20T01:38:15;5.80;99.90
23991;DHT22;12205;50.600;4.608;2023-12-20T01:40:44;5.80;99.90
23991;DHT22;12205;50.600;4.608;2023-12-20T01:43:11;5.80;99.90
23991;DHT22;12205;50.600;4.608;2023-12-20T01:45:40;5.80;99.90
23991;DHT22;12205;50.600;4.608;2023-12-20T01:48:08;5.70;99.90
23991;DHT22;12205;50.600;4.608;2023-12-20T01:50:37;5.70;99.90
23991;DHT22;12205;50.600;4.608;2023-12-20T01:53:05;5.70;99.90
23991;DHT22;12205;50.600;4.608;2023-12-20T01:55:39;5.60;99.90
23991;DHT22;12205;50.600;4.608;2023-12-20T01:58:07;5.60;99.90
23991;DHT22;12205;50.600;4.608;2023-12-20T02:00:36;5.70;99.90
23991;DHT22;12205;50.600;4.608;2023-12-20T02:03:05;5.70;99.90
23991;DHT22;12205;50.600;4.608;2023-12-20T02:05:35;5.60;99.90
23991;DHT22;12205;50.600;4.608;2023-12-20T02:08:03;5.70;99.90
23991;DHT22;12205;50.600;4.608;2023-12-20T02:10:31;5.60;99.90
23991;DHT22;12205;50.600;4.608;2023-12-20T02:12:59;5.60;99.90
23991;DHT22;12205;50.600;4.608;2023-12-20T02:15:26;5.60;99.90
23991;DHT22;12205;50.600;4.608;2023-12-20T02:17:53;5.60;99.90
23991;DHT22;12205;50.600;4.608;2023-12-20T02:20:22;5.50;99.90
23991;DHT22;12205;50.600;4.608;2023-12-20T02:22:51;5.40;99.90
23991;DHT22;12205;50.600;4.608;2023-12-20T02:25:18;5.40;99.90
23991;DHT22;12205;50.600;4.608;2023-12-20T02:27:45;5.40;99.90
23991;DHT22;12205;50.600;4.608;2023-12-20T02:30:13;5.40;99.90
23991;DHT22;12205;50.600;4.608;2023-12-20T02:32:41;5.40;99.90
23991;DHT22;12205;50.600;4.608;2023-12-20T02:35:08;5.30;99.90
23991;DHT22;12205;50.600;4.608;2023-12-20T02:37:35;5.40;99.90
23991;DHT22;12205;50.600;4.608;2023-12-20T02:40:05;5.30;99.90
23991;DHT22;12205;50.600;4.608;2023-12-20T02:42:33;5.30;99.90
23991;DHT22;12205;50.600;4.608;2023-12-20T02:45:00;5.30;99.90
23991;DHT22;12205;50.600;4.608;2023-12-20T02:47:28;5.40;99.90
23991;DHT22;12205;50.600;4.608;2023-12-20T02:49:55;5.40;99.90
23991;DHT22;12205;50.600;4.608;2023-12-20T02:52:22;5.40;99.90
23991;DHT22;12205;50.600;4.608;2023-12-20T02:54:50;5.30;99.90
23991;DHT22;12205;50.600;4.608;2023-12-20T02:57:19;5.30;99.90
23991;DHT22;12205;50.600;4.608;2023-12-20T02:59:46;5.40;99.90
23991;DHT22;12205;50.600;4.608;2023-12-20T03:02:13;5.40;99.90
23991;DHT22;12205;50.600;4.608;2023-12-20T03:04:40;5.40;99.90
23991;DHT22;12205;50.600;4.608;2023-12-20T03:07:08;5.40;99.90
23991;DHT22;12205;50.600;4.608;2023-12-20T03:09:35;5.30;99.90
23991;DHT22;12205;50.600;4.608;2023-12-20T03:12:02;5.30;99.90
23991;DHT22;12205;50.600;4.608;2023-12-20T03:14:31;5.30;99.90
23991;DHT22;12205;50.600;4.608;2023-12-20T03:16:58;5.30;99.90
23991;DHT22;12205;50.600;4.608;2023-12-20T03:19:25;5.30;99.90
23991;DHT22;12205;50.600;4.608;2023-12-20T03:21:52;5.30;99.90
23991;DHT22;12205;50.600;4.608;2023-12-20T03:24:20;5.40;99.90
23991;DHT22;12205;50.600;4.608;2023-12-20T03:26:47;5.30;99.90
23991;DHT22;12205;50.600;4.608;2023-12-20T03:29:14;5.30;99.90
23991;DHT22;12205;50.600;4.608;2023-12-20T03:31:42;5.40;99.90
23991;DHT22;12205;50.600;4.608;2023-12-20T03:34:10;5.40;99.90
23991;DHT22;12205;50.600;4.608;2023-12-20T03:36:37;5.30;99.90
23991;DHT22;12205;50.600;4.608;2023-12-20T03:39:04;5.30;99.90
23991;DHT22;12205;50.600;4.608;2023-12-20T03:41:31;5.30;99.90
23991;DHT22;12205;50.600;4.608;2023-12-20T03:43:59;5.40;99.90
23991;DHT22;12205;50.600;4.608;2023-12-20T03:46:26;5.40;99.90
23991;DHT22;12205;50.600;4.608;2023-12-20T03:48:54;5.40;99.90
23991;DHT22;12205;50.600;4.608;2023-12-20T03:51:21;5.40;99.90
23991;DHT22;12205;50.600;4.608;2023-12-20T03:53:48;5.50;99.90
23991;DHT22;12205;50.600;4.608;2023-12-20T03:56:16;5.50;99.90
23991;DHT22;12205;50.600;4.608;2023-12-20T03:58:43;5.50;99.90
23991;DHT22;12205;50.600;4.608;2023-12-20T04:01:10;5.50;99.90
23991;DHT22;12205;50.600;4.608;2023-12-20T04:03:38;5.60;99.90
23991;DHT22;12205;50.600;4.608;2023-12-20T04:06:07;5.60;99.90
23991;DHT22;12205;50.600;4.608;2023-12-20T04:08:35;5.50;99.90
23991;DHT22;12205;50.600;4.608;2023-12-20T04:11:02;5.60;99.90
23991;DHT22;12205;50.600;4.608;2023-12-20T04:13:29;5.60;99.90
23991;DHT22;12205;50.600;4.608;2023-12-20T04:15:57;5.60;99.90
23991;DHT22;12205;50.600;4.608;2023-12-20T04:18:24;5.60;99.90
23991;DHT22;12205;50.600;4.608;2023-12-20T04:20:51;5.60;99.90
23991;DHT22;12205;50.600;4.608;2023-12-20T04:23:19;5.70;99.90
23991;DHT22;12205;50.600;4.608;2023-12-20T04:25:47;5.70;99.90
23991;DHT22;12205;50.600;4.608;2023-12-20T04:28:14;5.80;99.90
23991;DHT22;12205;50.600;4.608;2023-12-20T04:30:41;5.80;99.90
23991;DHT22;12205;50.600;4.608;2023-12-20T04:33:09;5.70;99.90
23991;DHT22;12205;50.600;4.608;2023-12-20T04:35:36;5.70;99.90
23991;DHT22;12205;50.600;4.608;2023-12-20T04:38:03;5.70;99.90
23991;DHT22;12205;50.600;4.608;2023-12-20T04:40:32;5.80;99.90
23991;DHT22;12205;50.600;4.608;2023-12-20T04:42:59;5.80;99.90
23991;DHT22;12205;50.600;4.608;2023-12-20T04:45:26;5.80;99.90
23991;DHT22;12205;50.600;4.608;2023-12-20T04:47:53;5.80;99.90
23991;DHT22;12205;50.600;4.608;2023-12-20T04:50:20;5.80;99.90
23991;DHT22;12205;50.600;4.608;2023-12-20T04:52:48;5.80;99.90
23991;DHT22;12205;50.600;4.608;2023-12-20T04:55:15;5.80;99.90
23991;DHT22;12205;50.600;4.608;2023-12-20T04:57:44;5.90;99.90
23991;DHT22;12205;50.600;4.608;2023-12-20T05:00:12;5.90;99.90
23991;DHT22;12205;50.600;4.608;2023-12-20T05:02:41;5.90;99.90
23991;DHT22;12205;50.600;4.608;2023-12-20T05:05:08;5.80;99.90
23991;DHT22;12205;50.600;4.608;2023-12-20T05:07:35;5.90;99.90
23991;DHT22;12205;50.600;4.608;2023-12-20T05:10:03;5.90;99.90
23991;DHT22;12205;50.600;4.608;2023-12-20T05:12:31;5.70;99.90
23991;DHT22;12205;50.600;4.608;2023-12-20T05:14:59;5.70;99.90
23991;DHT22;12205;50.600;4.608;2023-12-20T05:17:27;5.70;99.90
23991;DHT22;12205;50.600;4.608;2023-12-20T05:19:54;5.70;99.90
23991;DHT22;12205;50.600;4.608;2023-12-20T05:22:21;5.70;99.90
23991;DHT22;12205;50.600;4.608;2023-12-20T05:24:48;5.70;99.90
23991;DHT22;12205;50.600;4.608;2023-12-20T05:27:15;5.80;99.90
23991;DHT22;12205;50.600;4.608;2023-12-20T05:29:42;5.70;99.90
23991;DHT22;12205;50.600;4.608;2023-12-20T05:32:11;5.70;99.90
23991;DHT22;12205;50.600;4.608;2023-12-20T05:34:38;5.80;99.90
23991;DHT22;12205;50.600;4.608;2023-12-20T05:37:05;5.60;99.90
23991;DHT22;12205;50.600;4.608;2023-12-20T05:39:32;5.60;99.90
23991;DHT22;12205;50.600;4.608;2023-12-20T05:41:59;5.70;99.90
23991;DHT22;12205;50.600;4.608;2023-12-20T05:44:27;5.70;99.90
23991;DHT22;12205;50.600;4.608;2023-12-20T05:46:54;5.80;99.90
23991;DHT22;12205;50.600;4.608;2023-12-20T05:49:22;5.70;99.90
23991;DHT22;12205;50.600;4.608;2023-12-20T05:51:50;5.60;99.90
23991;DHT22;12205;50.600;4.608;2023-12-20T05:54:17;5.60;99.90
23991;DHT22;12205;50.600;4.608;2023-12-20T05:56:44;5.60;99.90
23991;DHT22;12205;50.600;4.608;2023-12-20T05:59:11;5.60;99.90
23991;DHT22;12205;50.600;4.608;2023-12-20T06:01:39;5.40;99.90
23991;DHT22;12205;50.600;4.608;2023-12-20T06:04:06;5.30;99.90
23991;DHT22;12205;50.600;4.608;2023-12-20T06:06:40;5.40;99.90
23991;DHT22;12205;50.600;4.608;2023-12-20T06:09:08;5.30;99.90
23991;DHT22;12205;50.600;4.608;2023-12-20T06:11:36;5.30;99.90
23991;DHT22;12205;50.600;4.608;2023-12-20T06:14:04;5.30;99.90
23991;DHT22;12205;50.600;4.608;2023-12-20T06:16:31;5.20;99.90
23991;DHT22;12205;50.600;4.608;2023-12-20T06:18:59;5.10;99.90
23991;DHT22;12205;50.600;4.608;2023-12-20T06:21:26;5.20;99.90
23991;DHT22;12205;50.600;4.608;2023-12-20T06:23:54;5.20;99.90
23991;DHT22;12205;50.600;4.608;2023-12-20T06:26:21;5.10;99.90
23991;DHT22;12205;50.600;4.608;2023-12-20T06:28:49;5.10;99.90
23991;DHT22;12205;50.600;4.608;2023-12-20T06:31:16;5.00;99.90
23991;DHT22;12205;50.600;4.608;2023-12-20T06:33:43;5.10;99.90
23991;DHT22;12205;50.600;4.608;2023-12-20T06:36:11;5.10;99.90
23991;DHT22;12205;50.600;4.608;2023-12-20T06:38:39;5.00;99.90
23991;DHT22;12205;50.600;4.608;2023-12-20T06:41:12;5.00;99.90
23991;DHT22;12205;50.600;4.608;2023-12-20T06:43:39;5.00;99.90
23991;DHT22;12205;50.600;4.608;2023-12-20T06:46:07;5.00;99.90
23991;DHT22;12205;50.600;4.608;2023-12-20T06:48:35;5.00;99.90
23991;DHT22;12205;50.600;4.608;2023-12-20T06:51:02;5.00;99.90
23991;DHT22;12205;50.600;4.608;2023-12-20T06:53:29;5.00;99.90
23991;DHT22;12205;50.600;4.608;2023-12-20T06:55:57;5.10;99.90
23991;DHT22;12205;50.600;4.608;2023-12-20T06:58:25;5.00;99.90
23991;DHT22;12205;50.600;4.608;2023-12-20T07:00:53;5.10;99.90
23991;DHT22;12205;50.600;4.608;2023-12-20T07:03:20;5.00;99.90
23991;DHT22;12205;50.600;4.608;2023-12-20T07:05:47;5.00;99.90
23991;DHT22;12205;50.600;4.608;2023-12-20T07:08:14;5.10;99.90
23991;DHT22;12205;50.600;4.608;2023-12-20T07:10:42;5.10;99.90
23991;DHT22;12205;50.600;4.608;2023-12-20T07:13:09;5.20;99.90
23991;DHT22;12205;50.600;4.608;2023-12-20T07:15:37;5.20;99.90
23991;DHT22;12205;50.600;4.608;2023-12-20T07:18:05;5.10;99.90
23991;DHT22;12205;50.600;4.608;2023-12-20T07:20:33;5.10;99.90
23991;DHT22;12205;50.600;4.608;2023-12-20T07:23:00;5.10;99.90
23991;DHT22;12205;50.600;4.608;2023-12-20T07:25:27;5.00;99.90
23991;DHT22;12205;50.600;4.608;2023-12-20T07:27:54;5.00;99.90
23991;DHT22;12205;50.600;4.608;2023-12-20T07:30:21;5.00;99.90
23991;DHT22;12205;50.600;4.608;2023-12-20T07:32:50;5.00;99.90
23991;DHT22;12205;50.600;4.608;2023-12-20T07:35:18;5.00;99.90
23991;DHT22;12205;50.600;4.608;2023-12-20T07:37:45;5.00;99.90
23991;DHT22;12205;50.600;4.608;2023-12-20T07:40:12;5.00;99.90
23991;DHT22;12205;50.600;4.608;2023-12-20T07:42:42;5.00;99.90
23991;DHT22;12205;50.600;4.608;2023-12-20T07:45:10;5.00;99.90
23991;DHT22;12205;50.600;4.608;2023-12-20T07:47:37;5.00;99.90
23991;DHT22;12205;50.600;4.608;2023-12-20T07:50:08;4.90;99.90
23991;DHT22;12205;50.600;4.608;2023-12-20T07:52:35;4.90;99.90
23991;DHT22;12205;50.600;4.608;2023-12-20T07:55:03;4.90;99.90
23991;DHT22;12205;50.600;4.608;2023-12-20T07:57:30;4.90;99.90
23991;DHT22;12205;50.600;4.608;2023-12-20T07:59:58;4.90;99.90
23991;DHT22;12205;50.600;4.608;2023-12-20T08:02:25;4.80;99.90
23991;DHT22;12205;50.600;4.608;2023-12-20T08:04:52;4.90;99.90
23991;DHT22;12205;50.600;4.608;2023-12-20T08:07:21;4.80;99.90
23991;DHT22;12205;50.600;4.608;2023-12-20T08:09:48;4.80;99.90
23991;DHT22;12205;50.600;4.608;2023-12-20T08:12:15;4.80;99.90
23991;DHT22;12205;50.600;4.608;2023-12-20T08:14:42;4.90;99.90
23991;DHT22;12205;50.600;4.608;2023-12-20T08:17:09;4.80;99.90
23991;DHT22;12205;50.600;4.608;2023-12-20T08:19:38;4.90;99.90
23991;DHT22;12205;50.600;4.608;2023-12-20T08:22:05;4.80;99.90
23991;DHT22;12205;50.600;4.608;2023-12-20T08:24:33;4.90;99.90
23991;DHT22;12205;50.600;4.608;2023-12-20T08:27:01;4.90;99.90
23991;DHT22;12205;50.600;4.608;2023-12-20T08:29:28;4.90;99.90
23991;DHT22;12205;50.600;4.608;2023-12-20T08:31:55;4.90;99.90
23991;DHT22;12205;50.600;4.608;2023-12-20T08:34:22;5.00;99.90
23991;DHT22;12205;50.600;4.608;2023-12-20T08:36:50;4.90;99.90
23991;DHT22;12205;50.600;4.608;2023-12-20T08:39:17;5.00;99.90
23991;DHT22;12205;50.600;4.608;2023-12-20T08:41:46;5.00;99.90
23991;DHT22;12205;50.600;4.608;2023-12-20T08:44:13;5.00;99.90
23991;DHT22;12205;50.600;4.608;2023-12-20T08:46:40;5.10;99.90
23991;DHT22;12205;50.600;4.608;2023-12-20T08:49:07;5.10;99.90
23991;DHT22;12205;50.600;4.608;2023-12-20T08:51:35;5.20;99.90
23991;DHT22;12205;50.600;4.608;2023-12-20T08:54:05;5.30;99.90
23991;DHT22;12205;50.600;4.608;2023-12-20T08:56:34;5.20;99.90
23991;DHT22;12205;50.600;4.608;2023-12-20T08:59:02;5.20;99.90
23991;DHT22;12205;50.600;4.608;2023-12-20T09:01:30;5.20;99.90
23991;DHT22;12205;50.600;4.608;2023-12-20T09:03:57;5.20;99.90
23991;DHT22;12205;50.600;4.608;2023-12-20T09:06:24;5.20;99.90
23991;DHT22;12205;50.600;4.608;2023-12-20T09:08:51;5.20;99.90
23991;DHT22;12205;50.600;4.608;2023-12-20T09:11:18;5.20;99.90
23991;DHT22;12205;50.600;4.608;2023-12-20T09:13:46;5.30;99.90
23991;DHT22;12205;50.600;4.608;2023-12-20T09:16:14;5.30;99.90
23991;DHT22;12205;50.600;4.608;2023-12-20T09:18:42;5.40;99.90
23991;DHT22;12205;50.600;4.608;2023-12-20T09:21:09;5.40;99.90
23991;DHT22;12205;50.600;4.608;2023-12-20T09:23:36;5.40;99.90
23991;DHT22;12205;50.600;4.608;2023-12-20T09:26:04;5.40;99.90
23991;DHT22;12205;50.600;4.608;2023-12-20T09:28:31;5.50;99.90
23991;DHT22;12205;50.600;4.608;2023-12-20T09:31:03;5.50;99.90
23991;DHT22;12205;50.600;4.608;2023-12-20T09:33:32;5.60;99.90
23991;DHT22;12205;50.600;4.608;2023-12-20T09:35:59;5.60;99.90
23991;DHT22;12205;50.600;4.608;2023-12-20T09:38:27;5.60;99.90
23991;DHT22;12205;50.600;4.608;2023-12-20T09:40:54;5.50;99.90
23991;DHT22;12205;50.600;4.608;2023-12-20T09:43:24;5.60;99.90
23991;DHT22;12205;50.600;4.608;2023-12-20T09:45:54;5.70;99.90
23991;DHT22;12205;50.600;4.608;2023-12-20T09:48:26;5.70;99.90
23991;DHT22;12205;50.600;4.608;2023-12-20T09:50:56;5.80;99.90
23991;DHT22;12205;50.600;4.608;2023-12-20T09:53:25;5.80;99.90
23991;DHT22;12205;50.600;4.608;2023-12-20T09:55:58;5.90;99.90
23991;DHT22;12205;50.600;4.608;2023-12-20T09:58:26;6.00;99.90
23991;DHT22;12205;50.600;4.608;2023-12-20T10:00:54;6.00;99.90
23991;DHT22;12205;50.600;4.608;2023-12-20T10:03:25;6.10;99.90
23991;DHT22;12205;50.600;4.608;2023-12-20T10:05:56;6.20;99.90
23991;DHT22;12205;50.600;4.608;2023-12-20T10:08:24;6.30;99.90
23991;DHT22;12205;50.600;4.608;2023-12-20T10:10:52;6.40;99.90
23991;DHT22;12205;50.600;4.608;2023-12-20T10:13:19;6.30;99.90
23991;DHT22;12205;50.600;4.608;2023-12-20T10:15:46;6.40;99.90
23991;DHT22;12205;50.600;4.608;2023-12-20T10:18:16;6.60;99.90
23991;DHT22;12205;50.600;4.608;2023-12-20T10:20:44;6.70;99.90
23991;DHT22;12205;50.600;4.608;2023-12-20T10:23:15;6.70;99.90
23991;DHT22;12205;50.600;4.608;2023-12-20T10:25:43;6.70;99.90
23991;DHT22;12205;50.600;4.608;2023-12-20T10:28:22;6.70;99.90
23991;DHT22;12205;50.600;4.608;2023-12-20T10:30:53;6.80;99.90
23991;DHT22;12205;50.600;4.608;2023-12-20T10:33:26;6.80;99.90
23991;DHT22;12205;50.600;4.608;2023-12-20T10:35:55;6.90;99.90
23991;DHT22;12205;50.600;4.608;2023-12-20T10:38:23;6.90;99.90
23991;DHT22;12205;50.600;4.608;2023-12-20T10:40:54;7.00;99.90
23991;DHT22;12205;50.600;4.608;2023-12-20T10:43:24;7.00;99.90
23991;DHT22;12205;50.600;4.608;2023-12-20T10:45:53;7.10;99.90
23991;DHT22;12205;50.600;4.608;2023-12-20T10:48:21;7.20;99.90
23991;DHT22;12205;50.600;4.608;2023-12-20T10:50:55;7.30;99.90
23991;DHT22;12205;50.600;4.608;2023-12-20T10:53:25;7.40;99.90
23991;DHT22;12205;50.600;4.608;2023-12-20T10:55:52;7.50;99.90
23991;DHT22;12205;50.600;4.608;2023-12-20T10:58:24;7.40;99.90
23991;DHT22;12205;50.600;4.608;2023-12-20T11:00:58;7.50;99.90
23991;DHT22;12205;50.600;4.608;2023-12-20T11:03:28;7.40;99.90
23991;DHT22;12205;50.600;4.608;2023-12-20T11:06:03;7.50;99.90
23991;DHT22;12205;50.600;4.608;2023-12-20T11:08:42;7.40;99.90
23991;DHT22;12205;50.600;4.608;2023-12-20T11:11:18;7.50;99.90
23991;DHT22;12205;50.600;4.608;2023-12-20T11:13:55;7.50;99.90
23991;DHT22;12205;50.600;4.608;2023-12-20T11:16:27;7.40;99.90
23991;DHT22;12205;50.600;4.608;2023-12-20T11:18:54;7.50;99.90
23991;DHT22;12205;50.600;4.608;2023-12-20T11:21:21;7.60;99.90
23991;DHT22;12205;50.600;4.608;2023-12-20T11:23:50;7.50;99.90
23991;DHT22;12205;50.600;4.608;2023-12-20T11:26:22;7.60;99.90
23991;DHT22;12205;50.600;4.608;2023-12-20T11:28:53;7.50;99.90
23991;DHT22;12205;50.600;4.608;2023-12-20T11:31:20;7.50;99.90
23991;DHT22;12205;50.600;4.608;2023-12-20T11:33:47;7.50;99.90
23991;DHT22;12205;50.600;4.608;2023-12-20T11:36:18;7.60;99.90
23991;DHT22;12205;50.600;4.608;2023-12-20T11:38:54;7.70;99.90
23991;DHT22;12205;50.600;4.608;2023-12-20T11:41:23;7.50;99.90
23991;DHT22;12205;50.600;4.608;2023-12-20T11:43:53;7.50;99.90
23991;DHT22;12205;50.600;4.608;2023-12-20T11:46:20;7.60;99.90
23991;DHT22;12205;50.600;4.608;2023-12-20T11:48:48;7.60;99.90
23991;DHT22;12205;50.600;4.608;2023-12-20T11:51:15;7.70;99.90
23991;DHT22;12205;50.600;4.608;2023-12-20T11:53:42;7.70;99.90
23991;DHT22;12205;50.600;4.608;2023-12-20T11:56:11;7.70;99.90
23991;DHT22;12205;50.600;4.608;2023-12-20T11:58:39;7.80;99.90
23991;DHT22;12205;50.600;4.608;2023-12-20T12:01:07;7.80;99.90
23991;DHT22;12205;50.600;4.608;2023-12-20T12:03:34;7.70;99.90
23991;DHT22;12205;50.600;4.608;2023-12-20T12:06:02;7.70;99.90
23991;DHT22;12205;50.600;4.608;2023-12-20T12:08:30;7.80;99.90
23991;DHT22;12205;50.600;4.608;2023-12-20T12:10:57;7.80;99.90
23991;DHT22;12205;50.600;4.608;2023-12-20T12:13:26;7.80;99.90
23991;DHT22;12205;50.600;4.608;2023-12-20T12:15:53;7.80;99.90
23991;DHT22;12205;50.600;4.608;2023-12-20T12:18:21;7.80;99.90
23991;DHT22;12205;50.600;4.608;2023-12-20T12:20:48;7.90;99.90
23991;DHT22;12205;50.600;4.608;2023-12-20T12:23:22;7.90;99.90
23991;DHT22;12205;50.600;4.608;2023-12-20T12:25:50;7.80;99.90
23991;DHT22;12205;50.600;4.608;2023-12-20T12:28:17;7.90;99.90
23991;DHT22;12205;50.600;4.608;2023-12-20T12:30:57;7.90;99.90
23991;DHT22;12205;50.600;4.608;2023-12-20T12:33:25;7.90;99.90
23991;DHT22;12205;50.600;4.608;2023-12-20T12:35:52;7.90;99.90
23991;DHT22;12205;50.600;4.608;2023-12-20T12:38:20;7.90;99.90
23991;DHT22;12205;50.600;4.608;2023-12-20T12:40:48;7.90;99.90
23991;DHT22;12205;50.600;4.608;2023-12-20T12:43:16;7.90;99.90
23991;DHT22;12205;50.600;4.608;2023-12-20T12:45:43;7.90;99.90
23991;DHT22;12205;50.600;4.608;2023-12-20T12:48:12;7.90;99.90
23991;DHT22;12205;50.600;4.608;2023-12-20T12:50:40;7.80;99.90
23991;DHT22;12205;50.600;4.608;2023-12-20T12:53:07;7.80;99.90
23991;DHT22;12205;50.600;4.608;2023-12-20T12:55:35;7.80;99.90
23991;DHT22;12205;50.600;4.608;2023-12-20T12:58:02;7.80;99.90
23991;DHT22;12205;50.600;4.608;2023-12-20T13:00:30;7.80;99.90
23991;DHT22;12205;50.600;4.608;2023-12-20T13:02:57;7.90;99.90
23991;DHT22;12205;50.600;4.608;2023-12-20T13:05:25;7.80;99.90
23991;DHT22;12205;50.600;4.608;2023-12-20T13:07:53;7.80;99.90
23991;DHT22;12205;50.600;4.608;2023-12-20T13:10:21;7.80;99.90
23991;DHT22;12205;50.600;4.608;2023-12-20T13:12:48;7.80;99.90
23991;DHT22;12205;50.600;4.608;2023-12-20T13:15:15;7.70;99.90
23991;DHT22;12205;50.600;4.608;2023-12-20T13:17:42;7.70;99.90
23991;DHT22;12205;50.600;4.608;2023-12-20T13:20:12;7.70;99.90
23991;DHT22;12205;50.600;4.608;2023-12-20T13:22:40;7.80;99.90
23991;DHT22;12205;50.600;4.608;2023-12-20T13:25:07;7.90;99.90
23991;DHT22;12205;50.600;4.608;2023-12-20T13:27:35;8.10;99.90
23991;DHT22;12205;50.600;4.608;2023-12-20T13:30:02;8.20;99.90
23991;DHT22;12205;50.600;4.608;2023-12-20T13:32:30;8.20;99.90
23991;DHT22;12205;50.600;4.608;2023-12-20T13:34:57;8.20;99.90
23991;DHT22;12205;50.600;4.608;2023-12-20T13:37:25;8.20;99.90
23991;DHT22;12205;50.600;4.608;2023-12-20T13:39:53;8.10;99.90
23991;DHT22;12205;50.600;4.608;2023-12-20T13:42:20;8.00;99.90
23991;DHT22;12205;50.600;4.608;2023-12-20T13:44:47;7.80;99.90
23991;DHT22;12205;50.600;4.608;2023-12-20T13:47:14;7.90;99.90
23991;DHT22;12205;50.600;4.608;2023-12-20T13:49:42;7.80;99.90
23991;DHT22;12205;50.600;4.608;2023-12-20T13:52:09;7.90;99.90
23991;DHT22;12205;50.600;4.608;2023-12-20T13:54:37;7.90;99.90
23991;DHT22;12205;50.600;4.608;2023-12-20T13:57:06;7.90;99.90
23991;DHT22;12205;50.600;4.608;2023-12-20T13:59:33;7.90;99.90
23991;DHT22;12205;50.600;4.608;2023-12-20T14:02:01;7.90;99.90
23991;DHT22;12205;50.600;4.608;2023-12-20T14:04:29;7.80;99.90
23991;DHT22;12205;50.600;4.608;2023-12-20T14:06:56;7.80;99.90
23991;DHT22;12205;50.600;4.608;2023-12-20T14:09:23;7.90;99.90
23991;DHT22;12205;50.600;4.608;2023-12-20T14:11:51;7.90;99.90
23991;DHT22;12205;50.600;4.608;2023-12-20T14:14:20;7.90;99.90
23991;DHT22;12205;50.600;4.608;2023-12-20T14:16:47;7.80;99.90
23991;DHT22;12205;50.600;4.608;2023-12-20T14:19:14;7.90;99.90
23991;DHT22;12205;50.600;4.608;2023-12-20T14:21:41;8.00;99.90
23991;DHT22;12205;50.600;4.608;2023-12-20T14:24:11;8.00;99.90
23991;DHT22;12205;50.600;4.608;2023-12-20T14:26:40;8.00;99.90
23991;DHT22;12205;50.600;4.608;2023-12-20T14:29:07;8.10;99.90
23991;DHT22;12205;50.600;4.608;2023-12-20T14:31:36;8.10;99.90
23991;DHT22;12205;50.600;4.608;2023-12-20T14:34:04;8.20;99.90
23991;DHT22;12205;50.600;4.608;2023-12-20T14:36:32;8.20;99.90
23991;DHT22;12205;50.600;4.608;2023-12-20T14:38:59;8.20;99.90
23991;DHT22;12205;50.600;4.608;2023-12-20T14:41:27;8.20;99.90
23991;DHT22;12205;50.600;4.608;2023-12-20T14:43:54;8.20;99.90
23991;DHT22;12205;50.600;4.608;2023-12-20T14:46:22;8.20;99.90
23991;DHT22;12205;50.600;4.608;2023-12-20T14:48:50;8.20;99.90
23991;DHT22;12205;50.600;4.608;2023-12-20T14:51:17;8.30;99.90
23991;DHT22;12205;50.600;4.608;2023-12-20T14:53:45;8.30;99.90
23991;DHT22;12205;50.600;4.608;2023-12-20T14:56:13;8.30;99.90
23991;DHT22;12205;50.600;4.608;2023-12-20T14:58:40;8.30;99.90
23991;DHT22;12205;50.600;4.608;2023-12-20T15:01:07;8.40;99.90
23991;DHT22;12205;50.600;4.608;2023-12-20T15:03:35;8.30;99.90
23991;DHT22;12205;50.600;4.608;2023-12-20T15:06:04;8.30;99.90
23991;DHT22;12205;50.600;4.608;2023-12-20T15:08:31;8.40;99.90
23991;DHT22;12205;50.600;4.608;2023-12-20T15:10:59;8.40;99.90
23991;DHT22;12205;50.600;4.608;2023-12-20T15:13:27;8.30;99.90
23991;DHT22;12205;50.600;4.608;2023-12-20T15:15:54;8.30;99.90
23991;DHT22;12205;50.600;4.608;2023-12-20T15:18:21;8.30;99.90
23991;DHT22;12205;50.600;4.608;2023-12-20T15:20:48;8.30;99.90
23991;DHT22;12205;50.600;4.608;2023-12-20T15:23:17;8.40;99.90
23991;DHT22;12205;50.600;4.608;2023-12-20T15:25:45;8.40;99.90
23991;DHT22;12205;50.600;4.608;2023-12-20T15:28:12;8.40;99.90
23991;DHT22;12205;50.600;4.608;2023-12-20T15:30:40;8.40;99.90
23991;DHT22;12205;50.600;4.608;2023-12-20T15:33:07;8.40;99.90
23991;DHT22;12205;50.600;4.608;2023-12-20T15:35:34;8.40;99.90
23991;DHT22;12205;50.600;4.608;2023-12-20T15:38:01;8.40;99.90
23991;DHT22;12205;50.600;4.608;2023-12-20T15:40:31;8.40;99.90
23991;DHT22;12205;50.600;4.608;2023-12-20T15:42:58;8.40;99.90
23991;DHT22;12205;50.600;4.608;2023-12-20T15:45:26;8.40;99.90
23991;DHT22;12205;50.600;4.608;2023-12-20T15:47:53;8.40;99.90
23991;DHT22;12205;50.600;4.608;2023-12-20T15:50:20;8.40;99.90